Aérodrome :
LOGIN :

S'inscrire | Disclaimer

   EN    FR    IT 

 










Légende :    VFR   VFR Marginal   IFR   IFR Intensif   IFR Très Intensif
Visi : 
Plafond : 
>= 8 km
>= 3000ft
5 à 8 km
1000 à 3000 ft
1500m à 5 km
500 à 1000 ft
800 à 1500m
200 à 500 ft
< 800m
< 200 ft
Symboles :   Orages  Brouillard  Fortes neiges  Fortes précipitations  Vent > 20 kt
SIGMETs :   Divers  Orages  Givrage  Turbulence  Onde Orograph.  Cendres Volcan.







- Altitude de l'aérodrome : 327 ft
- Code IATA : BHX
- Voir les cartes d'approche


EGBB - Birmingham

DERNIER METAR :
  • 151120Z 33011KT 9999 FEW010 03/01 Q1000

METARs EXPIRÉS :
  • 151050Z 32012KT 9999 FEW010 04/01 Q1000
  • 151020Z 32011KT CAVOK 03/01 Q0999
  • 150950Z 32013KT CAVOK 03/00 Q0999
  • 150920Z 32015KT CAVOK 02/00 Q0998
  • 150850Z 31011KT 9999 FEW014 02/00 Q0997

TAF TAF EGBB
Valide du 15 à 12h jusqu'au 16 à 12h UTC


151104Z 1512/1612 32012KT 9999 FEW025
PROB30
TEMPO 1512/1517 34015G25KT
ATIS : +44 121 780 0910
Pas de NOTAMs connus pour ce terrain.



MET'MAP, la Météo Aéronautique d'un coup d'oeil ! - Copyright ORBIFLY Décembre 2007 - Disclaimer

ORBIFLY MET'MAP TEAM :

Programmation & Développement : Alexandra Zaïnal
Conception & Développement : Baudouin d'Aumeries
Co-Programmation & Développement : Marc-Olivier Méhu
Soutien technique & logistique : Manuel Goepfert

Contact : metmap@orbifly.com




SOURCES & CREDITS :

   NOAA